Map

Track Data

SID SEASON NUMBER BASIN SUBBASIN NAME ISO_TIME NATURE LAT LON WMO_WIND WMO_PRES WMO_AGENCY TRACK_TYPE DIST2LAND LANDFALL IFLAG USA_AGENCY USA_ATCF_ID USA_LAT USA_LON USA_RECORD USA_STATUS USA_WIND USA_PRES USA_SSHS USA_R34_NE USA_R34_SE USA_R34_SW USA_R34_NW USA_R50_NE USA_R50_SE USA_R50_SW USA_R50_NW USA_R64_NE USA_R64_SE USA_R64_SW USA_R64_NW USA_POCI USA_ROCI USA_RMW USA_EYE TOKYO_LAT TOKYO_LON TOKYO_GRADE TOKYO_WIND TOKYO_PRES TOKYO_R50_DIR TOKYO_R50_LONG TOKYO_R50_SHORT TOKYO_R30_DIR TOKYO_R30_LONG TOKYO_R30_SHORT TOKYO_LAND CMA_LAT CMA_LON CMA_CAT CMA_WIND CMA_PRES HKO_LAT HKO_LON HKO_CAT HKO_WIND HKO_PRES NEWDELHI_LAT NEWDELHI_LON NEWDELHI_GRADE NEWDELHI_WIND NEWDELHI_PRES NEWDELHI_CI NEWDELHI_DP NEWDELHI_POCI REUNION_LAT REUNION_LON REUNION_TYPE REUNION_WIND REUNION_PRES REUNION_TNUM REUNION_CI REUNION_RMW REUNION_R34_NE REUNION_R34_SE REUNION_R34_SW REUNION_R34_NW REUNION_R50_NE REUNION_R50_SE REUNION_R50_SW REUNION_R50_NW REUNION_R64_NE REUNION_R64_SE REUNION_R64_SW REUNION_R64_NW BOM_LAT BOM_LON BOM_TYPE BOM_WIND BOM_PRES BOM_TNUM BOM_CI BOM_RMW BOM_R34_NE BOM_R34_SE BOM_R34_SW BOM_R34_NW BOM_R50_NE BOM_R50_SE BOM_R50_SW BOM_R50_NW BOM_R64_NE BOM_R64_SE BOM_R64_SW BOM_R64_NW BOM_ROCI BOM_POCI BOM_EYE BOM_POS_METHOD BOM_PRES_METHOD NADI_LAT NADI_LON NADI_CAT NADI_WIND NADI_PRES WELLINGTON_LAT WELLINGTON_LON WELLINGTON_WIND WELLINGTON_PRES DS824_LAT DS824_LON DS824_STAGE DS824_WIND DS824_PRES TD9636_LAT TD9636_LON TD9636_STAGE TD9636_WIND TD9636_PRES TD9635_LAT TD9635_LON TD9635_WIND TD9635_PRES TD9635_ROCI NEUMANN_LAT NEUMANN_LON NEUMANN_CLASS NEUMANN_WIND NEUMANN_PRES MLC_LAT MLC_LON MLC_CLASS MLC_WIND MLC_PRES USA_GUST BOM_GUST BOM_GUST_PER REUNION_GUST REUNION_GUST_PER USA_SEAHGT USA_SEARAD_NE USA_SEARAD_SE USA_SEARAD_SW USA_SEARAD_NW STORM_SPEED STORM_DIR
1882042S14069 1882 7 SI MM NOT_NAMED 1882-02-11 06:00:00 NR -13.8000 69.4000 reunion spur-split 1429 1420 _____O________ -1 -13.8000 69.4000 99 9.90000 2 237
1882042S14069 1882 7 SI MM NOT_NAMED 1882-02-11 09:00:00 NR -13.8482 69.3159 spur-split 1420 1405 _____P________ -1 -13.8482 69.3159 99 2 240
1882042S14069 1882 7 SI MM NOT_NAMED 1882-02-11 12:00:00 NR -13.9013 69.2220 spur-split 1405 1390 _____P________ -1 -13.9013 69.2220 99 2 240
1882042S14069 1882 7 SI MM NOT_NAMED 1882-02-11 15:00:00 NR -13.9643 69.1085 spur-split 1390 1381 _____P________ -1 -13.9643 69.1085 99 3 241
1882042S14069 1882 7 SI MM NOT_NAMED 1882-02-11 18:00:00 NR -14.0422 68.9655 spur-split 1381 1356 _____P________ -1 -14.0422 68.9655 99 4 241
1882042S14069 1882 7 SI MM NOT_NAMED 1882-02-11 21:00:00 NR -14.1399 68.7832 spur-split 1356 1326 _____P________ -1 -14.1399 68.7832 99 5 241
1882042S14069 1882 7 SI MM NOT_NAMED 1882-02-12 00:00:00 NR -14.2622 68.5515 spur-split 1326 1293 _____P________ -1 -14.2622 68.5515 99 6 242
1882042S14069 1882 7 SI MM NOT_NAMED 1882-02-12 03:00:00 NR -14.4140 68.2605 spur-split 1293 1244 _____P________ -1 -14.4140 68.2605 99 7 242
1882042S14069 1882 7 SI MM NOT_NAMED 1882-02-12 06:00:00 NR -14.6000 67.9000 reunion spur-split 1244 1196 _____O________ -1 -14.6000 67.9000 99 9.90000 9 242
1882042S14069 1882 7 SI MM NOT_NAMED 1882-02-12 09:00:00 NR -14.8233 67.4635 spur-split 1196 1133 _____P________ -1 -14.8233 67.4635 99 10 242
1882042S14069 1882 7 SI MM NOT_NAMED 1882-02-12 12:00:00 NR -15.0809 66.9594 spur-split 1133 1060 _____P________ -1 -15.0809 66.9594 99 12 242
1882042S14069 1882 7 SI MM NOT_NAMED 1882-02-12 15:00:00 NR -15.3683 66.3999 spur-split 1060 988 _____P________ -1 -15.3683 66.3999 99 13 242
1882042S14069 1882 7 SI MM NOT_NAMED 1882-02-12 18:00:00 NR -15.6810 65.7971 spur-split 988 915 _____P________ -1 -15.6810 65.7971 99 14 241
1882042S14069 1882 7 SI MM NOT_NAMED 1882-02-12 21:00:00 NR -16.0147 65.1634 spur-split 915 834 _____P________ -1 -16.0147 65.1634 99 14 241
1882042S14069 1882 7 SI MM NOT_NAMED 1882-02-13 00:00:00 NR -16.3651 64.5110 spur-split 828 756 _____P________ -1 -16.3651 64.5110 99 14 240
1882042S14069 1882 7 SI MM NOT_NAMED 1882-02-13 03:00:00 NR -16.7281 63.8524 spur-split 756 669 _____P________ -1 -16.7281 63.8524 99 15 240
1882042S14069 1882 7 SI MM NOT_NAMED 1882-02-13 06:00:00 NR -17.1000 63.2000 reunion spur-split 669 597 _____O________ -1 -17.1000 63.2000 99 9.90000 14 239
1882042S14069 1882 7 SI MM NOT_NAMED 1882-02-13 09:00:00 NR -17.4535 62.5871 spur-split 592 520 _____P________ -1 -17.4535 62.5871 99 14 239
1882042S14069 1882 7 SI MM NOT_NAMED 1882-02-13 12:00:00 NR -17.8193 61.9700 spur-split 520 442 _____P________ -1 -17.8193 61.9700 99 14 238
1882042S14069 1882 7 SI MM NOT_NAMED 1882-02-13 15:00:00 NR -18.1960 61.3526 spur-split 442 365 _____P________ -1 -18.1960 61.3526 99 14 237
1882042S14069 1882 7 SI MM NOT_NAMED 1882-02-13 18:00:00 NR -18.5824 60.7388 spur-split 356 289 _____P________ -1 -18.5824 60.7388 99 14 236
1882042S14069 1882 7 SI MM NOT_NAMED 1882-02-13 21:00:00 NR -18.9771 60.1326 spur-split 279 213 _____P________ -1 -18.9771 60.1326 99 14 235
1882042S14069 1882 7 SI MM NOT_NAMED 1882-02-14 00:00:00 NR -19.3791 59.5380 spur-split 203 137 _____P________ -1 -19.3791 59.5380 99 14 234
1882042S14069 1882 7 SI MM NOT_NAMED 1882-02-14 03:00:00 NR -19.7871 58.9591 spur-split 137 63 _____P________ -1 -19.7871 58.9591 99 14 233
1882042S14069 1882 7 SI MM NOT_NAMED 1882-02-14 06:00:00 NR -20.2000 58.4000 reunion spur-split 63 20 _____O________ -1 -20.2000 58.4000 99 9.90000 13 233
1882042S14069 1882 7 SI MM NOT_NAMED 1882-02-14 09:00:00 NR -20.5790 57.8560 spur-split 23 15 _____P________ -1 -20.5790 57.8560 99 13 233
1882042S14069 1882 7 SI MM NOT_NAMED 1882-02-14 12:00:00 NR -20.9611 57.3300 spur-split 55 55 _____P________ -1 -20.9611 57.3300 99 12 231
1882042S14069 1882 7 SI MM NOT_NAMED 1882-02-14 15:00:00 NR -21.3514 56.8212 spur-split 104 76 _____P________ -1 -21.3514 56.8212 99 12 230
1882042S14069 1882 7 SI MM NOT_NAMED 1882-02-14 18:00:00 NR -21.7548 56.3287 spur-split 76 69 _____P________ -1 -21.7548 56.3287 99 12 228
1882042S14069 1882 7 SI MM NOT_NAMED 1882-02-14 21:00:00 NR -22.1764 55.8515 spur-split 94 91 _____P________ -1 -22.1764 55.8515 99 12 225
1882042S14069 1882 7 SI MM NOT_NAMED 1882-02-15 00:00:00 NR -22.6211 55.3884 spur-split 135 135 _____P________ -1 -22.6211 55.3884 99 13 223
1882042S14069 1882 7 SI MM NOT_NAMED 1882-02-15 03:00:00 NR -23.0940 54.9383 spur-split 203 203 _____P________ -1 -23.0940 54.9383 99 13 220
1882042S14069 1882 7 SI MM NOT_NAMED 1882-02-15 06:00:00 NR -23.6000 54.5000 reunion spur-split 269 269 _____O________ -1 -23.6000 54.5000 99 9.90000 14 218
1882042S14069 1882 7 SI MM NOT_NAMED 1882-02-15 09:00:00 NR -24.1829 54.0140 spur-split 350 350 _____P________ -1 -24.1829 54.0140 99 15 216
1882042S14069 1882 7 SI MM NOT_NAMED 1882-02-15 12:00:00 NR -24.8041 53.5346 spur-split 432 432 _____P________ -1 -24.8041 53.5346 99 15 214
1882042S14069 1882 7 SI MM NOT_NAMED 1882-02-15 15:00:00 NR -25.4503 53.0684 spur-split 520 520 _____P________ -1 -25.4503 53.0684 99 15 212
1882042S14069 1882 7 SI MM NOT_NAMED 1882-02-15 18:00:00 NR -26.1085 52.6226 spur-split 561 544 _____P________ -1 -26.1085 52.6226 99 15 211
1882042S14069 1882 7 SI MM NOT_NAMED 1882-02-15 21:00:00 NR -26.7655 52.2048 spur-split 547 538 _____P________ -1 -26.7655 52.2048 99 15 209
1882042S14069 1882 7 SI MM NOT_NAMED 1882-02-16 00:00:00 NR -27.4084 51.8229 spur-split 539 536 _____P________ -1 -27.4084 51.8229 99 14 207
1882042S14069 1882 7 SI MM NOT_NAMED 1882-02-16 03:00:00 NR -28.0242 51.4851 spur-split 550 549 _____P________ -1 -28.0242 51.4851 99 13 205
1882042S14069 1882 7 SI MM NOT_NAMED 1882-02-16 06:00:00 NR -28.6000 51.2000 reunion spur-split 570 570 _____O________ -1 -28.6000 51.2000 99 9.90000 12 202
1882042S14069 1882 7 SI MM NOT_NAMED 1882-02-16 09:00:00 NR -29.1263 50.9739 spur-split 596 596 _____P________ -1 -29.1263 50.9739 99 11 199
1882042S14069 1882 7 SI MM NOT_NAMED 1882-02-16 12:00:00 NR -29.6068 50.8024 spur-split 626 626 _____P________ -1 -29.6068 50.8024 99 10 196
1882042S14069 1882 7 SI MM NOT_NAMED 1882-02-16 15:00:00 NR -30.0481 50.6782 spur-split 657 657 _____P________ -1 -30.0481 50.6782 99 9 192
1882042S14069 1882 7 SI MM NOT_NAMED 1882-02-16 18:00:00 NR -30.4571 50.5940 spur-split 698 698 _____P________ -1 -30.4571 50.5940 99 8 189
1882042S14069 1882 7 SI MM NOT_NAMED 1882-02-16 21:00:00 NR -30.8403 50.5419 spur-split 722 722 _____P________ -1 -30.8403 50.5419 99 8 186
1882042S14069 1882 7 SI MM NOT_NAMED 1882-02-17 00:00:00 NR -31.2042 50.5143 spur-split 761 761 _____P________ -1 -31.2042 50.5143 99 7 184
1882042S14069 1882 7 SI MM NOT_NAMED 1882-02-17 03:00:00 NR -31.5553 50.5030 spur-split 800 800 _____P________ -1 -31.5553 50.5030 99 7 0
1882042S14069 1882 7 SI MM NOT_NAMED 1882-02-17 06:00:00 NR -31.9000 50.5000 reunion spur-split 830 _____O________ -1 -31.9000 50.5000 99 9.90000 7 182

About IBTrACS Database

This database is a web-friendly format of International Best Track Archive for Climate Stewardship (IBTrACS), a global best track data archive curated by NOAA dating back to 1842.

Updated: 2021-11-26